sensor_id;sensor_type;location;lat;lon;timestamp;pressure;altitude;pressure_sealevel;temperature
66027;BMP280;56312;55.976;37.136;2022-11-24T00:04:23;98586.22;;;2.91
66027;BMP280;56312;55.976;37.136;2022-11-24T00:09:30;98571.00;;;2.89
66027;BMP280;56312;55.976;37.136;2022-11-24T00:14:36;98578.63;;;2.88
66027;BMP280;56312;55.976;37.136;2022-11-24T00:19:42;98585.38;;;2.89
66027;BMP280;56312;55.976;37.136;2022-11-24T00:24:49;98601.44;;;2.89
66027;BMP280;56312;55.976;37.136;2022-11-24T00:29:55;98613.28;;;2.89
66027;BMP280;56312;55.976;37.136;2022-11-24T00:35:04;98624.28;;;2.88
66027;BMP280;56312;55.976;37.136;2022-11-24T00:40:11;98619.19;;;2.91
66027;BMP280;56312;55.976;37.136;2022-11-24T00:45:17;98623.38;;;2.93
66027;BMP280;56312;55.976;37.136;2022-11-24T00:50:24;98633.50;;;2.93
66027;BMP280;56312;55.976;37.136;2022-11-24T00:55:30;98633.56;;;2.90
66027;BMP280;56312;55.976;37.136;2022-11-24T01:00:36;98631.84;;;2.92
66027;BMP280;56312;55.976;37.136;2022-11-24T01:05:43;98637.69;;;2.97
66027;BMP280;56312;55.976;37.136;2022-11-24T01:10:49;98635.22;;;2.92
66027;BMP280;56312;55.976;37.136;2022-11-24T01:15:55;98634.41;;;2.91
66027;BMP280;56312;55.976;37.136;2022-11-24T01:21:02;98643.69;;;2.92
66027;BMP280;56312;55.976;37.136;2022-11-24T01:26:10;98651.22;;;2.97
66027;BMP280;56312;55.976;37.136;2022-11-24T01:31:19;98637.78;;;2.90
66027;BMP280;56312;55.976;37.136;2022-11-24T01:36:25;98640.28;;;2.94
66027;BMP280;56312;55.976;37.136;2022-11-24T01:41:32;98650.50;;;2.85
66027;BMP280;56312;55.976;37.136;2022-11-24T01:46:45;98653.00;;;2.90
66027;BMP280;56312;55.976;37.136;2022-11-24T01:52:17;98657.25;;;2.88
66027;BMP280;56312;55.976;37.136;2022-11-24T01:57:41;98660.56;;;2.92
66027;BMP280;56312;55.976;37.136;2022-11-24T02:03:12;98664.81;;;2.92
66027;BMP280;56312;55.976;37.136;2022-11-24T02:08:24;98660.59;;;2.91
66027;BMP280;56312;55.976;37.136;2022-11-24T02:13:49;98667.34;;;2.92
66027;BMP280;56312;55.976;37.136;2022-11-24T02:18:58;98673.34;;;2.85
66027;BMP280;56312;55.976;37.136;2022-11-24T02:29:23;98686.00;;;2.88
66027;BMP280;56312;55.976;37.136;2022-11-24T02:34:29;98681.75;;;2.89
66027;BMP280;56312;55.976;37.136;2022-11-24T02:39:35;98683.41;;;2.94
66027;BMP280;56312;55.976;37.136;2022-11-24T02:44:44;98673.34;;;2.87
66027;BMP280;56312;55.976;37.136;2022-11-24T02:49:53;98675.88;;;2.87
66027;BMP280;56312;55.976;37.136;2022-11-24T02:55:00;98684.31;;;2.86
66027;BMP280;56312;55.976;37.136;2022-11-24T03:00:06;98694.44;;;2.89
66027;BMP280;56312;55.976;37.136;2022-11-24T03:05:14;98706.31;;;2.85
66027;BMP280;56312;55.976;37.136;2022-11-24T03:10:20;98709.75;;;2.83
66027;BMP280;56312;55.976;37.136;2022-11-24T03:15:26;98713.88;;;2.90
66027;BMP280;56312;55.976;37.136;2022-11-24T03:20:33;98716.44;;;2.88
66027;BMP280;56312;55.976;37.136;2022-11-24T03:25:39;98723.13;;;2.95
66027;BMP280;56312;55.976;37.136;2022-11-24T03:30:48;98718.19;;;2.82
66027;BMP280;56312;55.976;37.136;2022-11-24T03:35:55;98719.88;;;2.83
66027;BMP280;56312;55.976;37.136;2022-11-24T03:41:01;98730.84;;;2.82
66027;BMP280;56312;55.976;37.136;2022-11-24T03:46:08;98730.03;;;2.81
66027;BMP280;56312;55.976;37.136;2022-11-24T03:51:14;98740.19;;;2.83
66027;BMP280;56312;55.976;37.136;2022-11-24T03:56:21;98743.47;;;2.89
66027;BMP280;56312;55.976;37.136;2022-11-24T04:01:27;98747.78;;;2.83
66027;BMP280;56312;55.976;37.136;2022-11-24T04:06:33;98750.31;;;2.83
66027;BMP280;56312;55.976;37.136;2022-11-24T04:11:40;98761.28;;;2.85
66027;BMP280;56312;55.976;37.136;2022-11-24T04:17:04;98757.94;;;2.80
66027;BMP280;56312;55.976;37.136;2022-11-24T04:22:11;98753.72;;;2.80
66027;BMP280;56312;55.976;37.136;2022-11-24T04:27:17;98751.97;;;2.87
66027;BMP280;56312;55.976;37.136;2022-11-24T04:32:23;98758.63;;;2.93
66027;BMP280;56312;55.976;37.136;2022-11-24T04:37:30;98776.50;;;2.82
66027;BMP280;56312;55.976;37.136;2022-11-24T04:42:36;98790.91;;;2.83
66027;BMP280;56312;55.976;37.136;2022-11-24T04:47:43;98798.50;;;2.83
66027;BMP280;56312;55.976;37.136;2022-11-24T04:52:49;98809.50;;;2.83
66027;BMP280;56312;55.976;37.136;2022-11-24T04:57:55;98805.28;;;2.81
66027;BMP280;56312;55.976;37.136;2022-11-24T05:03:02;98807.00;;;2.74
66027;BMP280;56312;55.976;37.136;2022-11-24T05:08:08;98814.63;;;2.74
66027;BMP280;56312;55.976;37.136;2022-11-24T05:13:15;98829.84;;;2.73
66027;BMP280;56312;55.976;37.136;2022-11-24T05:18:21;98840.88;;;2.72
66027;BMP280;56312;55.976;37.136;2022-11-24T05:23:27;98852.72;;;2.71
66027;BMP280;56312;55.976;37.136;2022-11-24T05:28:34;98848.50;;;2.66
66027;BMP280;56312;55.976;37.136;2022-11-24T05:33:40;98857.75;;;2.70
66027;BMP280;56312;55.976;37.136;2022-11-24T05:38:48;98855.22;;;2.70
66027;BMP280;56312;55.976;37.136;2022-11-24T05:43:54;98853.53;;;2.73
66027;BMP280;56312;55.976;37.136;2022-11-24T05:49:00;98854.34;;;2.74
66027;BMP280;56312;55.976;37.136;2022-11-24T05:54:06;98849.28;;;2.77
66027;BMP280;56312;55.976;37.136;2022-11-24T05:59:13;98852.66;;;2.76
66027;BMP280;56312;55.976;37.136;2022-11-24T06:04:19;98839.94;;;2.80
66027;BMP280;56312;55.976;37.136;2022-11-24T06:09:25;98862.72;;;2.85
66027;BMP280;56312;55.976;37.136;2022-11-24T06:14:31;98872.13;;;2.75
66027;BMP280;56312;55.976;37.136;2022-11-24T06:19:38;98870.34;;;2.82
66027;BMP280;56312;55.976;37.136;2022-11-24T06:24:45;98884.75;;;2.80
66027;BMP280;56312;55.976;37.136;2022-11-24T06:29:51;98893.22;;;2.79
66027;BMP280;56312;55.976;37.136;2022-11-24T06:34:58;98897.47;;;2.77
66027;BMP280;56312;55.976;37.136;2022-11-24T06:40:05;98904.16;;;2.82
66027;BMP280;56312;55.976;37.136;2022-11-24T06:45:13;98890.66;;;2.82
66027;BMP280;56312;55.976;37.136;2022-11-24T06:50:20;98896.56;;;2.84
66027;BMP280;56312;55.976;37.136;2022-11-24T06:55:27;98906.69;;;2.87
66027;BMP280;56312;55.976;37.136;2022-11-24T07:00:33;98912.59;;;2.89
66027;BMP280;56312;55.976;37.136;2022-11-24T07:05:39;98906.72;;;2.84
66027;BMP280;56312;55.976;37.136;2022-11-24T07:10:46;98904.16;;;2.85
66027;BMP280;56312;55.976;37.136;2022-11-24T07:15:52;98911.75;;;2.85
66027;BMP280;56312;55.976;37.136;2022-11-24T07:20:58;98915.09;;;2.94
66027;BMP280;56312;55.976;37.136;2022-11-24T07:26:10;98918.47;;;2.92
66027;BMP280;56312;55.976;37.136;2022-11-24T07:31:18;98927.00;;;2.84
66027;BMP280;56312;55.976;37.136;2022-11-24T07:36:25;98918.47;;;2.92
66027;BMP280;56312;55.976;37.136;2022-11-24T07:41:32;98926.06;;;2.95
66027;BMP280;56312;55.976;37.136;2022-11-24T07:46:38;98930.31;;;2.94
66027;BMP280;56312;55.976;37.136;2022-11-24T07:51:44;98941.28;;;2.93
66027;BMP280;56312;55.976;37.136;2022-11-24T07:56:50;98944.66;;;2.95
66027;BMP280;56312;55.976;37.136;2022-11-24T08:01:57;98954.84;;;2.90
66027;BMP280;56312;55.976;37.136;2022-11-24T08:07:03;98952.31;;;2.94
66027;BMP280;56312;55.976;37.136;2022-11-24T08:12:09;98947.22;;;2.95
66027;BMP280;56312;55.976;37.136;2022-11-24T08:17:16;98956.50;;;2.93
66027;BMP280;56312;55.976;37.136;2022-11-24T08:22:23;98960.78;;;2.92
66027;BMP280;56312;55.976;37.136;2022-11-24T08:27:29;98962.47;;;2.90
66027;BMP280;56312;55.976;37.136;2022-11-24T08:32:36;98967.53;;;2.92
66027;BMP280;56312;55.976;37.136;2022-11-24T08:37:42;98971.72;;;2.93
66027;BMP280;56312;55.976;37.136;2022-11-24T08:42:48;98965.00;;;2.94
66027;BMP280;56312;55.976;37.136;2022-11-24T08:47:55;98969.19;;;2.93
66027;BMP280;56312;55.976;37.136;2022-11-24T08:53:02;98970.84;;;2.97
66027;BMP280;56312;55.976;37.136;2022-11-24T08:58:08;98970.91;;;2.92
66027;BMP280;56312;55.976;37.136;2022-11-24T09:03:14;98989.50;;;2.92
66027;BMP280;56312;55.976;37.136;2022-11-24T09:08:21;98994.56;;;2.93
66027;BMP280;56312;55.976;37.136;2022-11-24T09:13:27;99000.44;;;3.00
66027;BMP280;56312;55.976;37.136;2022-11-24T09:18:34;99013.16;;;2.95
66027;BMP280;56312;55.976;37.136;2022-11-24T09:23:40;99008.09;;;2.98
66027;BMP280;56312;55.976;37.136;2022-11-24T09:28:48;99008.03;;;3.01
66027;BMP280;56312;55.976;37.136;2022-11-24T09:33:55;99010.59;;;3.01
66027;BMP280;56312;55.976;37.136;2022-11-24T09:39:02;99016.56;;;2.94
66027;BMP280;56312;55.976;37.136;2022-11-24T09:44:13;99014.03;;;2.94
66027;BMP280;56312;55.976;37.136;2022-11-24T09:49:59;99016.56;;;2.94
66027;BMP280;56312;55.976;37.136;2022-11-24T10:00:48;99018.25;;;2.98
66027;BMP280;56312;55.976;37.136;2022-11-24T10:05:56;99024.13;;;3.00
66027;BMP280;56312;55.976;37.136;2022-11-24T10:11:05;99024.13;;;3.02
66027;BMP280;56312;55.976;37.136;2022-11-24T10:32:05;99036.00;;;2.95
66027;BMP280;56312;55.976;37.136;2022-11-24T10:37:25;99035.16;;;2.96
66027;BMP280;56312;55.976;37.136;2022-11-24T10:42:38;99028.38;;;2.97
66027;BMP280;56312;55.976;37.136;2022-11-24T10:47:45;99035.16;;;2.98
66027;BMP280;56312;55.976;37.136;2022-11-24T10:52:57;99036.00;;;2.95
66027;BMP280;56312;55.976;37.136;2022-11-24T10:58:23;99040.22;;;2.99
66027;BMP280;56312;55.976;37.136;2022-11-24T11:03:46;99043.59;;;2.98
66027;BMP280;56312;55.976;37.136;2022-11-24T11:14:32;99058.00;;;2.95
66027;BMP280;56312;55.976;37.136;2022-11-24T11:19:43;99061.34;;;3.00
66027;BMP280;56312;55.976;37.136;2022-11-24T11:25:05;99061.34;;;3.03
66027;BMP280;56312;55.976;37.136;2022-11-24T11:35:24;99061.34;;;3.00
66027;BMP280;56312;55.976;37.136;2022-11-24T11:40:32;99052.88;;;3.01
66027;BMP280;56312;55.976;37.136;2022-11-24T11:45:44;99058.81;;;2.97
66027;BMP280;56312;55.976;37.136;2022-11-24T11:50:57;99069.81;;;2.99
66027;BMP280;56312;55.976;37.136;2022-11-24T11:56:23;99073.19;;;2.99
66027;BMP280;56312;55.976;37.136;2022-11-24T12:01:52;99067.28;;;2.97
66027;BMP280;56312;55.976;37.136;2022-11-24T12:18:08;99057.16;;;2.94
66027;BMP280;56312;55.976;37.136;2022-11-24T12:39:56;99078.31;;;2.92
66027;BMP280;56312;55.976;37.136;2022-11-24T12:45:50;99085.06;;;2.92
66027;BMP280;56312;55.976;37.136;2022-11-24T12:51:18;99081.69;;;2.91
66027;BMP280;56312;55.976;37.136;2022-11-24T12:56:33;99095.25;;;2.90
66027;BMP280;56312;55.976;37.136;2022-11-24T13:07:14;99097.78;;;2.89
66027;BMP280;56312;55.976;37.136;2022-11-24T13:12:26;99098.59;;;2.89
66027;BMP280;56312;55.976;37.136;2022-11-24T13:17:32;99098.59;;;2.89
66027;BMP280;56312;55.976;37.136;2022-11-24T13:22:39;99112.16;;;2.88
66027;BMP280;56312;55.976;37.136;2022-11-24T13:28:01;99113.84;;;2.88
66027;BMP280;56312;55.976;37.136;2022-11-24T13:38:37;99121.47;;;2.88
66027;BMP280;56312;55.976;37.136;2022-11-24T13:49:20;99128.22;;;2.90
66027;BMP280;56312;55.976;37.136;2022-11-24T13:54:26;99130.75;;;2.87
66027;BMP280;56312;55.976;37.136;2022-11-24T13:59:33;99129.94;;;2.87
66027;BMP280;56312;55.976;37.136;2022-11-24T14:04:40;99131.59;;;2.88
66027;BMP280;56312;55.976;37.136;2022-11-24T14:09:49;99134.13;;;2.88
66027;BMP280;56312;55.976;37.136;2022-11-24T14:15:13;99148.50;;;2.86
66027;BMP280;56312;55.976;37.136;2022-11-24T14:20:30;99168.81;;;2.86
66027;BMP280;56312;55.976;37.136;2022-11-24T14:25:36;99167.13;;;2.88
66027;BMP280;56312;55.976;37.136;2022-11-24T14:30:43;99180.66;;;2.81
66027;BMP280;56312;55.976;37.136;2022-11-24T14:35:49;99178.13;;;2.79
66027;BMP280;56312;55.976;37.136;2022-11-24T14:40:56;99173.88;;;2.86
66027;BMP280;56312;55.976;37.136;2022-11-24T14:46:18;99173.06;;;2.84
66027;BMP280;56312;55.976;37.136;2022-11-24T14:51:43;99176.41;;;2.86
66027;BMP280;56312;55.976;37.136;2022-11-24T15:03:13;99180.66;;;2.78
66027;BMP280;56312;55.976;37.136;2022-11-24T15:08:22;99191.66;;;2.84
66027;BMP280;56312;55.976;37.136;2022-11-24T15:13:32;99185.75;;;2.79
66027;BMP280;56312;55.976;37.136;2022-11-24T15:18:43;99188.25;;;2.85
66027;BMP280;56312;55.976;37.136;2022-11-24T15:24:03;99186.59;;;2.83
66027;BMP280;56312;55.976;37.136;2022-11-24T15:29:11;99188.25;;;2.82
66027;BMP280;56312;55.976;37.136;2022-11-24T15:34:18;99206.88;;;2.84
66027;BMP280;56312;55.976;37.136;2022-11-24T15:39:24;99206.03;;;2.84
66027;BMP280;56312;55.976;37.136;2022-11-24T15:44:30;99222.09;;;2.83
66027;BMP280;56312;55.976;37.136;2022-11-24T15:49:37;99222.09;;;2.80
66027;BMP280;56312;55.976;37.136;2022-11-24T15:54:43;99226.31;;;2.78
66027;BMP280;56312;55.976;37.136;2022-11-24T15:59:50;99228.00;;;2.82
66027;BMP280;56312;55.976;37.136;2022-11-24T16:04:57;99229.69;;;2.86
66027;BMP280;56312;55.976;37.136;2022-11-24T16:10:04;99243.22;;;2.85
66027;BMP280;56312;55.976;37.136;2022-11-24T16:15:12;99255.06;;;2.77
66027;BMP280;56312;55.976;37.136;2022-11-24T16:20:19;99255.09;;;2.80
66027;BMP280;56312;55.976;37.136;2022-11-24T16:25:25;99249.13;;;2.82
66027;BMP280;56312;55.976;37.136;2022-11-24T16:30:31;99255.06;;;2.81
66027;BMP280;56312;55.976;37.136;2022-11-24T16:35:38;99260.16;;;2.72
66027;BMP280;56312;55.976;37.136;2022-11-24T16:40:49;99265.22;;;2.77
66027;BMP280;56312;55.976;37.136;2022-11-24T16:51:20;99273.69;;;2.76
66027;BMP280;56312;55.976;37.136;2022-11-24T16:56:28;99276.22;;;2.73
66027;BMP280;56312;55.976;37.136;2022-11-24T17:01:35;99282.16;;;2.75
66027;BMP280;56312;55.976;37.136;2022-11-24T17:06:44;99293.97;;;2.73
66027;BMP280;56312;55.976;37.136;2022-11-24T17:11:50;99295.66;;;2.77
66027;BMP280;56312;55.976;37.136;2022-11-24T17:16:57;99293.13;;;2.75
66027;BMP280;56312;55.976;37.136;2022-11-24T17:22:03;99307.50;;;2.78
66027;BMP280;56312;55.976;37.136;2022-11-24T17:27:09;99306.66;;;2.71
66027;BMP280;56312;55.976;37.136;2022-11-24T17:32:16;99302.41;;;2.81
66027;BMP280;56312;55.976;37.136;2022-11-24T17:37:22;99301.59;;;2.71
66027;BMP280;56312;55.976;37.136;2022-11-24T17:42:28;99294.81;;;2.79
66027;BMP280;56312;55.976;37.136;2022-11-24T17:47:35;99296.50;;;2.80
66027;BMP280;56312;55.976;37.136;2022-11-24T17:52:41;99298.19;;;2.80
66027;BMP280;56312;55.976;37.136;2022-11-24T17:57:47;99298.22;;;2.75
66027;BMP280;56312;55.976;37.136;2022-11-24T18:02:54;99295.69;;;2.75
66027;BMP280;56312;55.976;37.136;2022-11-24T18:08:02;99319.34;;;2.76
66027;BMP280;56312;55.976;37.136;2022-11-24T18:13:09;99315.97;;;2.75
66027;BMP280;56312;55.976;37.136;2022-11-24T18:18:15;99308.34;;;2.77
66027;BMP280;56312;55.976;37.136;2022-11-24T18:23:21;99315.94;;;2.74
66027;BMP280;56312;55.976;37.136;2022-11-24T18:28:28;99311.75;;;2.71
66027;BMP280;56312;55.976;37.136;2022-11-24T18:33:35;99310.91;;;2.71
66027;BMP280;56312;55.976;37.136;2022-11-24T18:38:42;99319.34;;;2.73
66027;BMP280;56312;55.976;37.136;2022-11-24T18:43:49;99315.97;;;2.68
66027;BMP280;56312;55.976;37.136;2022-11-24T18:48:55;99315.13;;;2.69
66027;BMP280;56312;55.976;37.136;2022-11-24T18:54:01;99315.97;;;2.68
66027;BMP280;56312;55.976;37.136;2022-11-24T18:59:10;99330.31;;;2.76
66027;BMP280;56312;55.976;37.136;2022-11-24T19:04:16;99331.16;;;2.74
66027;BMP280;56312;55.976;37.136;2022-11-24T19:09:22;99327.78;;;2.72
66027;BMP280;56312;55.976;37.136;2022-11-24T19:14:30;99335.41;;;2.72
66027;BMP280;56312;55.976;37.136;2022-11-24T19:19:36;99340.47;;;2.62
66027;BMP280;56312;55.976;37.136;2022-11-24T19:24:44;99343.84;;;2.65
66027;BMP280;56312;55.976;37.136;2022-11-24T19:29:51;99348.09;;;2.75
66027;BMP280;56312;55.976;37.136;2022-11-24T19:34:59;99344.69;;;2.73
66027;BMP280;56312;55.976;37.136;2022-11-24T19:40:06;99349.78;;;2.67
66027;BMP280;56312;55.976;37.136;2022-11-24T19:45:12;99348.91;;;2.74
66027;BMP280;56312;55.976;37.136;2022-11-24T19:50:19;99346.38;;;2.62
66027;BMP280;56312;55.976;37.136;2022-11-24T19:55:25;99353.16;;;2.63
66027;BMP280;56312;55.976;37.136;2022-11-24T20:00:31;99355.69;;;2.70
66027;BMP280;56312;55.976;37.136;2022-11-24T20:05:38;99347.25;;;2.64
66027;BMP280;56312;55.976;37.136;2022-11-24T20:10:44;99353.16;;;2.72
66027;BMP280;56312;55.976;37.136;2022-11-24T20:15:50;99348.09;;;2.72
66027;BMP280;56312;55.976;37.136;2022-11-24T20:21:03;99352.31;;;2.71
66027;BMP280;56312;55.976;37.136;2022-11-24T20:26:11;99355.72;;;2.63
66027;BMP280;56312;55.976;37.136;2022-11-24T20:31:25;99356.56;;;2.71
66027;BMP280;56312;55.976;37.136;2022-11-24T20:36:37;99358.22;;;2.70
66027;BMP280;56312;55.976;37.136;2022-11-24T20:41:45;99371.75;;;2.68
66027;BMP280;56312;55.976;37.136;2022-11-24T20:46:54;99376.00;;;2.72
66027;BMP280;56312;55.976;37.136;2022-11-24T20:52:01;99379.38;;;2.64
66027;BMP280;56312;55.976;37.136;2022-11-24T20:57:08;99386.97;;;2.59
66027;BMP280;56312;55.976;37.136;2022-11-24T21:02:14;99381.03;;;2.66
66027;BMP280;56312;55.976;37.136;2022-11-24T21:07:20;99391.19;;;2.62
66027;BMP280;56312;55.976;37.136;2022-11-24T21:12:26;99386.13;;;2.67
66027;BMP280;56312;55.976;37.136;2022-11-24T21:17:33;99394.59;;;2.64
66027;BMP280;56312;55.976;37.136;2022-11-24T21:22:39;99399.66;;;2.64
66027;BMP280;56312;55.976;37.136;2022-11-24T21:27:45;99402.19;;;2.68
66027;BMP280;56312;55.976;37.136;2022-11-24T21:32:51;99400.50;;;2.64
66027;BMP280;56312;55.976;37.136;2022-11-24T21:37:58;99412.31;;;2.66
66027;BMP280;56312;55.976;37.136;2022-11-24T21:43:04;99403.00;;;2.58
66027;BMP280;56312;55.976;37.136;2022-11-24T21:48:10;99407.25;;;2.62
66027;BMP280;56312;55.976;37.136;2022-11-24T21:53:17;99411.50;;;2.65
66027;BMP280;56312;55.976;37.136;2022-11-24T21:58:23;99407.25;;;2.62
66027;BMP280;56312;55.976;37.136;2022-11-24T22:03:33;99414.88;;;2.59
66027;BMP280;56312;55.976;37.136;2022-11-24T22:08:39;99425.88;;;2.64
66027;BMP280;56312;55.976;37.136;2022-11-24T22:13:46;99425.84;;;2.70
66027;BMP280;56312;55.976;37.136;2022-11-24T22:18:52;99430.94;;;2.67
66027;BMP280;56312;55.976;37.136;2022-11-24T22:23:59;99432.59;;;2.62
66027;BMP280;56312;55.976;37.136;2022-11-24T22:29:05;99435.97;;;2.58
66027;BMP280;56312;55.976;37.136;2022-11-24T22:34:13;99440.25;;;2.64
66027;BMP280;56312;55.976;37.136;2022-11-24T22:39:19;99439.38;;;2.66
66027;BMP280;56312;55.976;37.136;2022-11-24T22:44:25;99442.75;;;2.65
66027;BMP280;56312;55.976;37.136;2022-11-24T22:49:31;99438.53;;;2.61
66027;BMP280;56312;55.976;37.136;2022-11-24T22:54:38;99440.25;;;2.68
66027;BMP280;56312;55.976;37.136;2022-11-24T22:59:44;99436.00;;;2.65
66027;BMP280;56312;55.976;37.136;2022-11-24T23:04:51;99438.53;;;2.61
66027;BMP280;56312;55.976;37.136;2022-11-24T23:09:57;99439.38;;;2.60
66027;BMP280;56312;55.976;37.136;2022-11-24T23:15:03;99439.38;;;2.60
66027;BMP280;56312;55.976;37.136;2022-11-24T23:20:10;99437.69;;;2.62
66027;BMP280;56312;55.976;37.136;2022-11-24T23:25:17;99439.41;;;2.63
66027;BMP280;56312;55.976;37.136;2022-11-24T23:30:23;99444.44;;;2.60
66027;BMP280;56312;55.976;37.136;2022-11-24T23:35:29;99450.38;;;2.64
66027;BMP280;56312;55.976;37.136;2022-11-24T23:40:36;99456.28;;;2.55
66027;BMP280;56312;55.976;37.136;2022-11-24T23:45:42;99466.44;;;2.55
66027;BMP280;56312;55.976;37.136;2022-11-24T23:50:48;99454.59;;;2.60
66027;BMP280;56312;55.976;37.136;2022-11-24T23:55:55;99466.44;;;2.64
